createdAt,value
2022-10-18T03:44:46.219Z,101830.69
2022-10-18T03:47:49.144Z,101830.69
2022-10-18T03:50:51.678Z,101837.34
2022-10-18T03:53:54.462Z,101838.25
2022-10-18T03:56:56.972Z,101836.50
2022-10-18T03:59:59.751Z,101840.88
2022-10-18T04:03:03.249Z,101837.41
2022-10-18T04:06:07.874Z,101838.25
2022-10-18T04:09:10.638Z,101831.22
2022-10-18T04:12:13.494Z,101825.12
2022-10-18T04:15:16.111Z,101825.09
2022-10-18T04:18:18.928Z,101831.19
2022-10-18T04:21:21.491Z,101822.41
2022-10-18T04:24:24.520Z,101828.50
2022-10-18T04:27:27.040Z,101826.78
2022-10-18T04:30:30.019Z,101824.19
2022-10-18T04:33:32.721Z,101815.47
2022-10-18T04:36:35.563Z,101820.72
2022-10-18T04:39:38.144Z,101820.78
2022-10-18T04:42:40.866Z,101820.75
2022-10-18T04:45:45.725Z,101822.47
2022-10-18T04:48:48.580Z,101817.25
2022-10-18T04:51:51.034Z,101806.75
2022-10-18T04:54:53.724Z,101813.78
2022-10-18T04:57:56.288Z,101801.53
2022-10-18T05:00:59.795Z,101799.69
2022-10-18T05:04:02.288Z,101798.81
2022-10-18T05:07:06.631Z,101804.94
2022-10-18T05:10:10.114Z,101801.41
2022-10-18T05:13:13.139Z,101808.34
2022-10-18T05:16:16.151Z,101810.97
2022-10-18T05:19:18.964Z,101803.91
2022-10-18T05:22:21.471Z,101809.97
2022-10-18T05:25:24.900Z,101812.53
2022-10-18T05:28:39.648Z,101808.97
2022-10-18T05:31:43.124Z,101809.75
2022-10-18T05:34:46.285Z,101815.81
2022-10-18T05:37:49.087Z,101822.78
2022-10-18T05:40:54.402Z,101815.81
2022-10-18T05:43:57.236Z,101811.41
2022-10-18T05:46:59.675Z,101818.31
2022-10-18T05:50:02.725Z,101809.53
2022-10-18T05:53:12.537Z,101817.25
2022-10-18T05:56:21.212Z,101810.22
2022-10-18T05:59:24.011Z,101811.69
2022-10-18T06:02:26.776Z,101814.88
2022-10-18T06:05:29.601Z,101823.34
2022-10-18T06:08:32.627Z,101823.06
2022-10-18T06:11:35.912Z,101824.59
2022-10-18T06:14:38.370Z,101823.44
2022-10-18T06:17:41.213Z,101823.97
2022-10-18T06:20:44.739Z,101823.69
2022-10-18T06:23:57.594Z,101825.84
2022-10-18T06:27:00.140Z,101829.75
2022-10-18T06:30:03.856Z,101835.47
2022-10-18T06:33:06.471Z,101835.84
2022-10-18T06:36:22.120Z,101838.03
2022-10-18T06:39:26.183Z,101829.63
2022-10-18T06:42:29.057Z,101835.28
2022-10-18T06:45:31.552Z,101833.00
2022-10-18T06:48:36.247Z,101830.13
2022-10-18T06:51:39.125Z,101828.88
2022-10-18T06:54:42.090Z,101835.28
2022-10-18T06:57:46.339Z,101834.94
2022-10-18T07:00:49.060Z,101841.38
2022-10-18T07:03:53.657Z,101845.28
2022-10-18T07:06:56.771Z,101841.38
2022-10-18T07:10:01.489Z,101844.28
2022-10-18T07:13:27.428Z,101841.06
2022-10-18T07:16:26.766Z,101838.72
2022-10-18T07:19:29.462Z,101841.66
2022-10-18T07:22:31.884Z,101831.97
2022-10-18T07:25:35.458Z,101837.88
2022-10-18T07:28:38.721Z,101828.38
2022-10-18T07:31:41.813Z,101830.66
2022-10-18T07:34:44.303Z,101830.31
2022-10-18T07:37:47.153Z,101826.34
2022-10-18T07:40:57.499Z,101821.28
2022-10-18T07:44:01.576Z,101821.84
2022-10-18T07:47:04.060Z,101817.25
2022-10-18T07:50:07.431Z,101814.06
2022-10-18T07:53:10.524Z,101818.12
2022-10-18T07:56:16.505Z,101815.78
2022-10-18T07:59:19.136Z,101811.09
2022-10-18T08:02:24.814Z,101809.37
2022-10-18T08:05:28.889Z,101801.66
2022-10-18T08:08:31.855Z,101801.59
2022-10-18T08:11:34.787Z,101798.59
2022-10-18T08:14:37.419Z,101803.56
2022-10-18T08:17:40.189Z,101794.41
2022-10-18T08:20:44.988Z,101790.22
2022-10-18T08:23:48.997Z,101792.97
2022-10-18T08:26:51.509Z,101784.44
2022-10-18T08:29:54.332Z,101787.38
2022-10-18T08:32:56.893Z,101780.53
2022-10-18T08:36:01.380Z,101775.63
2022-10-18T08:39:04.042Z,101764.09
2022-10-18T08:42:42.715Z,101761.69
2022-10-18T08:45:45.542Z,101761.09
2022-10-18T08:48:50.921Z,101757.69
2022-10-18T08:51:53.768Z,101751.03
2022-10-18T08:55:10.316Z,101752.13
2022-10-18T08:58:24.863Z,101748.75
2022-10-18T09:01:36.656Z,101742.00
2022-10-18T09:05:14.395Z,101739.34
2022-10-18T09:08:27.782Z,101734.97
2022-10-18T09:11:47.322Z,101735.37
2022-10-18T09:15:18.129Z,101732.03
2022-10-18T09:18:42.301Z,101726.88
2022-10-18T09:21:53.672Z,101721.81
2022-10-18T09:25:15.180Z,101719.41
2022-10-18T09:28:26.992Z,101708.06
2022-10-18T09:31:52.759Z,101704.78
2022-10-18T09:35:01.018Z,101710.19
2022-10-18T09:38:09.366Z,101703.47
2022-10-18T09:41:34.631Z,101703.59
2022-10-18T09:44:41.955Z,101700.56
2022-10-18T09:47:51.159Z,101696.16
2022-10-18T09:50:59.301Z,101685.78
2022-10-18T09:54:19.195Z,101684.44
2022-10-18T09:57:31.467Z,101684.94
2022-10-18T10:00:43.424Z,101681.53
2022-10-18T10:03:46.399Z,101676.19
2022-10-18T10:06:50.458Z,101672.97
2022-10-18T10:09:59.611Z,101663.03
2022-10-18T10:13:14.370Z,101668.69
2022-10-18T10:16:17.854Z,101655.97
2022-10-18T10:19:23.069Z,101654.31
2022-10-18T10:22:47.751Z,101653.16
2022-10-18T10:25:56.675Z,101642.47
2022-10-18T10:28:59.898Z,101638.16
2022-10-18T10:32:03.958Z,101631.13
2022-10-18T10:35:41.406Z,101630.84
2022-10-18T10:39:18.375Z,101625.25
2022-10-18T10:42:21.220Z,101620.75
2022-10-18T10:45:25.944Z,101614.66
2022-10-18T10:48:33.720Z,101606.78
2022-10-18T10:51:39.361Z,101610.53
2022-10-18T10:54:50.327Z,101600.47
2022-10-18T10:57:56.460Z,101599.00
2022-10-18T11:01:19.126Z,101600.13
2022-10-18T11:04:30.425Z,101600.25
2022-10-18T11:07:46.628Z,101589.72
2022-10-18T11:11:02.888Z,101588.16
2022-10-18T11:14:29.548Z,101578.75
2022-10-18T11:17:44.067Z,101585.94
2022-10-18T11:20:56.120Z,101576.72
2022-10-18T11:24:00.117Z,101561.00
2022-10-18T11:27:18.043Z,101568.72
2022-10-18T11:30:55.463Z,101557.03
2022-10-18T11:34:43.653Z,101557.88
2022-10-18T11:37:57.351Z,101543.53
2022-10-18T11:41:39.923Z,101542.81
2022-10-18T11:45:00.427Z,101530.25
2022-10-18T11:48:40.039Z,101535.13
2022-10-18T11:52:09.952Z,101527.75
2022-10-18T11:55:19.793Z,101521.19
2022-10-18T11:59:00.328Z,101514.59
2022-10-18T12:02:21.628Z,101504.63
2022-10-18T12:05:25.255Z,101492.72
2022-10-18T12:08:49.977Z,101491.41
2022-10-18T12:11:58.443Z,101486.47
2022-10-18T12:15:13.580Z,101487.44
2022-10-18T12:18:21.614Z,101479.06
2022-10-18T12:21:26.656Z,101472.09
2022-10-18T12:24:31.999Z,101470.47
2022-10-18T12:27:40.912Z,101474.19
2022-10-18T12:31:18.682Z,101471.75
2022-10-18T12:34:21.142Z,101460.06
2022-10-18T12:38:05.678Z,101462.66
2022-10-18T12:41:20.599Z,101448.38
2022-10-18T12:44:33.185Z,101448.75
2022-10-18T12:47:36.713Z,101432.56
2022-10-18T12:50:43.150Z,101424.94
2022-10-18T12:53:49.189Z,101430.31
2022-10-18T12:56:52.441Z,101424.72
2022-10-18T12:59:55.175Z,101421.03
2022-10-18T13:03:27.412Z,101409.44
2022-10-18T13:06:59.312Z,101410.34
2022-10-18T13:10:12.360Z,101403.25
2022-10-18T13:13:39.200Z,101390.56
2022-10-18T13:17:06.950Z,101394.38
2022-10-18T13:20:38.892Z,101391.81
2022-10-18T13:23:53.677Z,101387.44
2022-10-18T13:27:35.519Z,101378.94
2022-10-18T13:30:55.518Z,101367.56
2022-10-18T13:34:20.681Z,101364.94
2022-10-18T13:37:25.750Z,101362.13
2022-10-18T13:40:32.476Z,101377.47
2022-10-18T13:43:54.114Z,101380.06
2022-10-18T13:46:56.396Z,101373.97
2022-10-18T13:50:17.115Z,101366.66
2022-10-18T13:53:22.628Z,101362.84
2022-10-18T13:57:03.065Z,101364.12
2022-10-18T14:00:37.855Z,101352.84
2022-10-18T14:04:21.884Z,101346.16
2022-10-18T14:07:27.043Z,101339.91
2022-10-18T14:11:07.965Z,101337.00
2022-10-18T14:14:41.572Z,101332.81
2022-10-18T14:17:47.980Z,101331.06
2022-10-18T14:21:12.711Z,101318.00
2022-10-18T14:24:23.344Z,101313.97
2022-10-18T14:27:28.709Z,101310.16
2022-10-18T14:30:33.174Z,101300.56
2022-10-18T14:33:39.051Z,101293.47
2022-10-18T14:36:45.904Z,101279.53
2022-10-18T14:39:48.404Z,101282.91
2022-10-18T14:42:51.220Z,101279.41
2022-10-18T14:45:53.838Z,101275.94
2022-10-18T14:49:04.293Z,101270.00
2022-10-18T14:52:13.862Z,101262.72
2022-10-18T14:55:32.547Z,101273.91
2022-10-18T14:58:37.865Z,101262.06
2022-10-18T15:02:10.822Z,101261.25
2022-10-18T15:05:16.304Z,101251.97
2022-10-18T15:08:19.998Z,101253.94
2022-10-18T15:11:24.444Z,101255.22
2022-10-18T15:14:28.786Z,101252.44
2022-10-18T15:17:34.142Z,101240.63
2022-10-18T15:20:42.616Z,101243.44
2022-10-18T15:23:45.226Z,101245.41
2022-10-18T15:26:50.243Z,101240.34
2022-10-18T15:29:52.906Z,101236.87
2022-10-18T15:32:58.807Z,101235.12
